Time;durP1;ratioP1;P1;durP2;ratioP2;P2;SDS_P1;SDS_P2;PMS_P1;PMS_P2;Temp;Humidity;BMP_temperature;BMP_pressure;BME280_temperature;BME280_humidity;BME280_pressure;Samples;Min_cycle;Max_cycle;Signal;HPM_P1;HPM_P2
2024/01/08 00:01:17;;;;;;;32.05;9.98;;;;;;;-19.53;53.02;101170.25;6275980;22;20004;-59
2024/01/08 00:03:43;;;;;;;36.35;11.48;;;;;;;-19.49;52.98;101179.88;6275717;22;20379;-60
2024/01/08 00:06:08;;;;;;;31.00;10.57;;;;;;;-19.45;52.80;101173.25;6275674;22;20401;-57
2024/01/08 00:08:34;;;;;;;36.92;11.38;;;;;;;-19.45;52.79;101157.09;6275665;22;20227;-58
2024/01/08 00:10:59;;;;;;;35.53;10.43;;;;;;;-19.43;52.70;101170.81;6276058;22;20057;-58
2024/01/08 00:13:25;;;;;;;33.72;10.48;;;;;;;-19.43;52.88;101161.47;6277717;22;20018;-59
2024/01/08 00:15:50;;;;;;;31.77;10.35;;;;;;;-19.43;52.62;101150.41;6278366;22;20027;-58
2024/01/08 00:18:16;;;;;;;35.78;10.80;;;;;;;-19.39;52.25;101162.56;6277877;22;20340;-60
2024/01/08 00:20:42;;;;;;;38.25;10.68;;;;;;;-19.44;52.44;101156.31;6276595;22;20346;-61
2024/01/08 00:23:08;;;;;;;34.65;9.77;;;;;;;-19.52;52.16;101149.06;6278393;22;20304;-52
2024/01/08 00:25:33;;;;;;;30.95;10.52;;;;;;;-19.46;52.97;101165.53;6277903;22;19995;-55
2024/01/08 00:28:00;;;;;;;36.03;10.68;;;;;;;-19.49;52.59;101156.91;6277197;22;20350;-52
2024/01/08 00:30:26;;;;;;;36.03;10.40;;;;;;;-19.46;52.54;101158.75;6277692;22;20008;-56
2024/01/08 00:32:51;;;;;;;32.45;10.15;;;;;;;-19.39;52.72;101162.56;6278230;22;20014;-51
2024/01/08 00:35:17;;;;;;;31.45;9.88;;;;;;;-19.36;52.80;101157.66;6277905;22;20399;-52
2024/01/08 00:37:42;;;;;;;39.85;11.50;;;;;;;-19.31;52.53;101156.25;6277939;22;19995;-53
2024/01/08 00:40:10;;;;;;;33.00;10.25;;;;;;;-19.32;52.20;101148.53;6278185;22;20431;-51
2024/01/08 00:42:37;;;;;;;35.75;11.65;;;;;;;-19.38;52.56;101149.03;6277690;22;20022;-52
2024/01/08 00:45:03;;;;;;;32.00;10.98;;;;;;;-19.43;52.37;101151.28;6277594;22;20409;-54
2024/01/08 00:47:32;;;;;;;32.28;10.38;;;;;;;-19.53;52.36;101157.50;6278260;22;19999;-56
2024/01/08 00:49:58;;;;;;;33.50;10.80;;;;;;;-19.61;52.46;101147.59;6278189;22;20098;-54
2024/01/08 00:52:23;;;;;;;29.50;8.63;;;;;;;-19.62;52.96;101151.81;6277833;22;20349;-54
2024/01/08 00:54:49;;;;;;;29.65;9.88;;;;;;;-19.78;52.72;101132.97;6277620;22;20004;-53
2024/01/08 00:57:15;;;;;;;29.25;10.02;;;;;;;-19.73;52.53;101140.06;6277312;22;20324;-53
2024/01/08 00:59:40;;;;;;;35.08;10.18;;;;;;;-19.74;52.95;101143.41;6278155;22;20411;-53
2024/01/08 01:02:06;;;;;;;31.30;10.45;;;;;;;-19.78;52.96;101132.97;6277759;22;20031;-51
2024/01/08 01:04:31;;;;;;;27.85;10.00;;;;;;;-19.69;52.84;101157.31;6277801;22;20010;-52
2024/01/08 01:06:56;;;;;;;38.38;11.15;;;;;;;-20.15;52.81;101079.72;6278639;22;20027;-57
2024/01/08 01:09:22;;;;;;;34.05;10.75;;;;;;;-19.80;52.75;101139.66;6278187;22;20352;-56
2024/01/08 01:11:47;;;;;;;36.50;11.27;;;;;;;-20.10;53.08;101080.88;6277375;22;20077;-53
2024/01/08 01:14:13;;;;;;;30.63;10.93;;;;;;;-19.69;52.98;101157.31;6277476;22;20094;-59
2024/01/08 01:16:38;;;;;;;41.22;13.30;;;;;;;-19.70;52.79;101163.22;6278146;22;19996;-56
2024/01/08 01:19:04;;;;;;;49.00;14.10;;;;;;;-19.66;52.86;101167.72;6277528;22;20393;-57
2024/01/08 01:21:30;;;;;;;44.50;13.93;;;;;;;-20.01;52.49;101089.91;6277338;22;20003;-59
2024/01/08 01:23:55;;;;;;;50.15;14.13;;;;;;;-19.59;52.55;101149.44;6277143;22;20389;-56
2024/01/08 01:26:21;;;;;;;45.60;14.52;;;;;;;-19.53;52.52;101167.72;6277905;22;19996;-59
2024/01/08 01:28:46;;;;;;;44.70;13.52;;;;;;;-19.55;52.46;101141.19;6277448;22;20412;-54
2024/01/08 01:31:12;;;;;;;38.10;13.30;;;;;;;-19.42;52.32;101150.50;6277198;22;20004;-59
2024/01/08 01:33:38;;;;;;;41.85;12.70;;;;;;;-19.36;52.20;101142.34;6277272;22;20000;-59
2024/01/08 01:36:05;;;;;;;40.80;13.85;;;;;;;-19.37;52.21;101146.56;6277932;22;20074;-57
2024/01/08 01:38:31;;;;;;;50.47;14.80;;;;;;;-19.48;52.07;101122.06;6277879;22;20000;-57
2024/01/08 01:40:56;;;;;;;42.83;13.65;;;;;;;-19.37;52.18;101158.44;6276827;22;20305;-52
2024/01/08 01:43:28;;;;;;;48.60;13.13;;;;;;;-19.35;52.08;101155.22;6277199;22;20300;-59
2024/01/08 01:45:56;;;;;;;40.17;13.15;;;;;;;-19.35;52.16;101152.66;6277692;22;20078;-57
2024/01/08 01:48:23;;;;;;;35.00;12.75;;;;;;;-19.34;52.00;101163.72;6277366;22;20003;-59
2024/01/08 01:50:49;;;;;;;42.08;14.00;;;;;;;-19.72;51.98;101080.63;6276930;22;20015;-58
2024/01/08 01:53:15;;;;;;;47.28;13.85;;;;;;;-19.43;52.18;101132.56;6276964;22;20300;-57
2024/01/08 01:55:42;;;;;;;49.58;14.45;;;;;;;-19.36;52.06;101148.34;6277186;22;20004;-57
2024/01/08 01:58:10;;;;;;;46.58;14.00;;;;;;;-19.46;51.88;101145.13;6277053;22;20035;-58
2024/01/08 02:00:35;;;;;;;33.45;11.02;;;;;;;-19.51;51.72;101157.59;6275848;22;20014;-55
2024/01/08 02:03:03;;;;;;;45.00;13.45;;;;;;;-20.01;52.25;101078.03;6276929;22;20000;-59
2024/01/08 02:05:29;;;;;;;41.53;13.05;;;;;;;-19.77;52.64;101138.97;6277738;22;20008;-56
2024/01/08 02:07:55;;;;;;;47.75;14.30;;;;;;;-19.81;52.63;101147.22;6276973;22;20011;-55
2024/01/08 02:10:20;;;;;;;38.75;12.75;;;;;;;-19.82;52.83;101140.38;6276973;22;19996;-56
2024/01/08 02:12:46;;;;;;;38.97;12.77;;;;;;;-19.85;52.72;101143.59;6277196;22;20089;-58
2024/01/08 02:15:11;;;;;;;49.10;15.18;;;;;;;-19.90;52.87;101137.31;6276920;22;20031;-57
2024/01/08 02:17:39;;;;;;;38.88;12.85;;;;;;;-19.91;53.06;101130.50;6276851;22;20079;-56
2024/01/08 02:20:05;;;;;;;43.78;14.63;;;;;;;-19.94;52.94;101136.25;6276910;22;20000;-59
2024/01/08 02:22:31;;;;;;;46.47;14.02;;;;;;;-20.23;52.74;101081.78;6276209;22;20377;-57
2024/01/08 02:24:56;;;;;;;45.25;13.15;;;;;;;-20.31;53.02;101066.78;6276397;22;20004;-57
2024/01/08 02:27:22;;;;;;;35.65;12.43;;;;;;;-19.92;52.88;101139.78;6276652;22;20393;-55
2024/01/08 02:29:47;;;;;;;46.97;13.95;;;;;;;-20.22;52.76;101078.44;6276389;22;20006;-60
2024/01/08 02:32:13;;;;;;;47.58;13.95;;;;;;;-19.89;52.71;101128.00;6276158;22;20000;-57
2024/01/08 02:34:39;;;;;;;35.30;12.88;;;;;;;-19.87;52.45;101129.00;6276596;22;20011;-60
2024/01/08 02:37:05;;;;;;;46.42;13.70;;;;;;;-20.00;52.74;101109.53;6276447;22;20274;-59
2024/01/08 02:39:31;;;;;;;49.55;15.15;;;;;;;-19.91;53.13;101130.50;6276601;22;20376;-56
2024/01/08 02:41:56;;;;;;;45.53;13.18;;;;;;;-19.95;52.95;101129.41;6276751;22;20026;-57
2024/01/08 02:44:22;;;;;;;48.20;13.60;;;;;;;-19.93;52.96;101124.41;6276940;22;20102;-56
2024/01/08 02:46:47;;;;;;;46.65;15.30;;;;;;;-19.94;52.79;101120.97;6276087;22;20145;-57
2024/01/08 02:49:13;;;;;;;48.83;15.10;;;;;;;-19.91;52.54;101117.75;6276582;22;20061;-56
2024/01/08 02:51:39;;;;;;;48.13;14.75;;;;;;;-20.00;52.48;101104.44;6277002;22;20039;-58
2024/01/08 02:54:05;;;;;;;43.65;14.43;;;;;;;-19.88;52.81;101107.72;6277134;22;20022;-61
2024/01/08 02:56:30;;;;;;;43.50;14.15;;;;;;;-19.81;52.88;101132.78;6276852;22;20003;-57
2024/01/08 02:58:56;;;;;;;42.47;13.45;;;;;;;-19.80;52.83;101110.75;6276337;22;20031;-60
2024/01/08 03:01:21;;;;;;;37.63;11.85;;;;;;;-19.83;52.81;101093.56;6277044;22;20035;-58
2024/01/08 03:03:47;;;;;;;37.00;11.80;;;;;;;-19.62;52.83;101095.69;6276617;22;20456;-57
2024/01/08 03:06:12;;;;;;;36.10;12.30;;;;;;;-19.57;52.53;101094.31;6276478;22;20082;-58
2024/01/08 03:08:38;;;;;;;33.50;10.98;;;;;;;-19.43;52.79;101109.59;6275149;22;20010;-54
2024/01/08 03:11:03;;;;;;;39.65;11.63;;;;;;;-19.35;52.62;101113.47;6277017;22;20102;-58
2024/01/08 03:13:29;;;;;;;40.20;12.80;;;;;;;-19.67;52.51;101039.28;6275981;22;20308;-58
2024/01/08 03:15:54;;;;;;;31.90;12.30;;;;;;;-19.21;52.45;101115.22;6276058;22;20177;-58
2024/01/08 03:18:20;;;;;;;37.20;11.45;;;;;;;-19.14;52.64;101118.13;6276219;22;19999;-59
2024/01/08 03:20:45;;;;;;;30.05;9.88;;;;;;;-19.08;52.34;101108.28;6276708;22;20401;-60
2024/01/08 03:23:11;;;;;;;34.47;11.45;;;;;;;-19.03;52.44;101112.00;6276940;22;20025;-57
2024/01/08 03:25:36;;;;;;;34.40;11.23;;;;;;;-19.04;52.46;101112.81;6276560;22;20014;-57
2024/01/08 03:28:02;;;;;;;38.70;11.73;;;;;;;-19.01;52.37;101110.44;6276170;22;20003;-58
2024/01/08 03:30:28;;;;;;;41.58;12.15;;;;;;;-19.00;52.07;101111.28;6276517;22;19996;-59
2024/01/08 03:32:54;;;;;;;42.97;13.75;;;;;;;-19.07;52.11;101112.59;6276744;22;20035;-58
2024/01/08 03:35:19;;;;;;;33.70;10.90;;;;;;;-19.08;52.43;101104.06;6276560;22;20011;-58
2024/01/08 03:37:45;;;;;;;28.65;9.43;;;;;;;-19.07;51.92;101116.03;6275984;22;20000;-58
2024/01/08 03:40:11;;;;;;;32.38;11.00;;;;;;;-19.15;52.08;101116.38;6276554;22;20022;-57
2024/01/08 03:42:38;;;;;;;32.80;10.68;;;;;;;-19.29;52.20;101105.31;6276802;22;20011;-60
2024/01/08 03:45:03;;;;;;;32.58;11.25;;;;;;;-19.42;52.46;101111.34;6274661;22;20466;-58
2024/01/08 03:47:31;;;;;;;30.48;10.57;;;;;;;-19.59;52.92;101107.78;6276227;22;20427;-55
2024/01/08 03:49:56;;;;;;;32.95;10.55;;;;;;;-19.74;52.94;101108.56;6275993;22;20031;-60
2024/01/08 03:52:22;;;;;;;42.15;11.50;;;;;;;-19.87;53.36;101121.34;6275876;22;20350;-59
2024/01/08 03:54:49;;;;;;;64.03;17.48;;;;;;;-20.03;53.54;101094.00;6275699;22;20348;-59
2024/01/08 03:57:14;;;;;;;79.30;21.70;;;;;;;-20.16;53.85;101106.00;6276293;22;20007;-59
2024/01/08 03:59:42;;;;;;;94.90;26.33;;;;;;;-20.16;53.57;101094.91;6276418;22;20061;-58
2024/01/08 04:02:07;;;;;;;106.25;31.88;;;;;;;-20.22;53.97;101101.38;6276131;22;20007;-62
2024/01/08 04:04:33;;;;;;;142.38;38.28;;;;;;;-20.27;54.31;101094.22;6276336;22;20293;-58
2024/01/08 04:06:58;;;;;;;130.18;36.95;;;;;;;-20.33;54.26;101110.00;6276357;22;20082;-60
2024/01/08 04:09:24;;;;;;;186.98;52.78;;;;;;;-20.37;54.21;101108.91;6275415;22;20262;-57
2024/01/08 04:11:49;;;;;;;189.95;58.80;;;;;;;-20.39;54.47;101110.47;6275601;22;20046;-58
2024/01/08 04:14:15;;;;;;;237.18;71.57;;;;;;;-20.41;54.78;101106.97;6276519;22;20410;-60
2024/01/08 04:16:40;;;;;;;246.15;73.93;;;;;;;-20.50;54.93;101101.25;6275642;22;20004;-57
2024/01/08 04:19:06;;;;;;;211.05;64.88;;;;;;;-20.51;54.84;101109.66;6276229;22;20003;-55
2024/01/08 04:21:32;;;;;;;181.13;57.95;;;;;;;-20.57;55.18;101094.00;6275229;22;20404;-58
2024/01/08 04:23:58;;;;;;;130.13;41.30;;;;;;;-20.82;55.27;101059.31;6276112;22;20004;-60
2024/01/08 04:26:25;;;;;;;116.40;37.50;;;;;;;-20.51;55.13;101104.56;6275778;22;20003;-58
2024/01/08 04:28:52;;;;;;;102.30;33.05;;;;;;;-20.55;55.34;101097.53;6276412;22;20011;-59
2024/01/08 04:31:20;;;;;;;98.28;29.80;;;;;;;-20.70;55.53;101077.03;6276036;22;20007;-59
2024/01/08 04:33:47;;;;;;;110.00;31.38;;;;;;;-20.66;55.50;101092.63;6275469;22;20095;-57
2024/01/08 04:36:13;;;;;;;92.45;28.70;;;;;;;-20.69;55.59;101082.25;6275756;22;20404;-59
2024/01/08 04:38:39;;;;;;;88.70;27.42;;;;;;;-20.60;55.85;101096.34;6276803;22;20061;-57
2024/01/08 04:41:05;;;;;;;67.28;20.17;;;;;;;-20.54;55.48;101104.38;6276582;22;20007;-58
2024/01/08 04:43:30;;;;;;;58.47;19.30;;;;;;;-20.47;55.45;101088.75;6275697;22;20023;-56
2024/01/08 04:45:56;;;;;;;57.97;20.27;;;;;;;-20.39;55.33;101084.13;6275899;22;20012;-56
2024/01/08 04:48:21;;;;;;;43.22;16.65;;;;;;;-20.57;55.38;101053.25;6276207;22;20011;-57
2024/01/08 04:50:47;;;;;;;42.97;14.32;;;;;;;-20.29;55.45;101083.03;6276100;22;20053;-61
2024/01/08 04:53:12;;;;;;;35.58;13.18;;;;;;;-20.23;55.27;101081.78;6275424;22;20000;-58
2024/01/08 04:55:39;;;;;;;38.85;13.23;;;;;;;-20.30;55.38;101064.34;6276395;22;20320;-59
2024/01/08 04:58:06;;;;;;;28.92;10.95;;;;;;;-20.15;55.09;101079.72;6277488;22;20048;-59
2024/01/08 05:00:31;;;;;;;36.28;10.98;;;;;;;-20.14;54.87;101076.38;6278100;22;20003;-57
2024/01/08 05:02:56;;;;;;;31.95;11.18;;;;;;;-20.11;54.93;101076.59;6277143;22;20002;-56
2024/01/08 05:05:22;;;;;;;29.58;10.50;;;;;;;-20.16;54.72;101067.78;6277855;22;20072;-57
2024/01/08 05:07:47;;;;;;;14.70;5.55;;;;;;;-20.15;54.08;101059.34;6278294;22;20071;-55
2024/01/08 05:10:13;;;;;;;27.35;9.43;;;;;;;-20.04;54.37;101082.06;6277901;22;20355;-51
2024/01/08 05:12:38;;;;;;;27.77;8.85;;;;;;;-20.04;54.50;101088.06;6277835;22;20018;-58
2024/01/08 05:15:04;;;;;;;25.98;8.20;;;;;;;-19.98;54.76;101082.47;6277399;22;20392;-56
2024/01/08 05:17:30;;;;;;;24.27;8.48;;;;;;;-19.94;54.72;101070.00;6277863;22;20343;-55
2024/01/08 05:19:56;;;;;;;28.40;8.95;;;;;;;-19.97;54.41;101067.25;6277646;22;20004;-59
2024/01/08 05:22:21;;;;;;;26.40;7.95;;;;;;;-19.83;54.35;101082.50;6277343;22;20014;-55
2024/01/08 05:24:47;;;;;;;22.35;8.05;;;;;;;-19.86;54.45;101077.22;6277591;22;20019;-56
2024/01/08 05:27:12;;;;;;;18.20;6.60;;;;;;;-19.91;54.36;101089.69;6277999;22;20003;-60
2024/01/08 05:29:38;;;;;;;23.55;7.00;;;;;;;-19.92;54.56;101098.13;6278160;22;20003;-58
2024/01/08 05:32:04;;;;;;;15.40;6.10;;;;;;;-19.92;54.21;101081.16;6276578;22;20004;-54
2024/01/08 05:34:29;;;;;;;19.52;6.78;;;;;;;-19.96;54.43;101086.00;6277077;22;20015;-56
2024/01/08 05:36:56;;;;;;;21.55;7.25;;;;;;;-20.04;54.27;101087.16;6277946;22;20004;-59
2024/01/08 05:39:22;;;;;;;21.83;6.35;;;;;;;-20.09;54.35;101084.34;6277087;22;20026;-56
2024/01/08 05:41:47;;;;;;;21.10;6.78;;;;;;;-20.17;54.68;101088.03;6277029;22;20014;-55
2024/01/08 05:44:13;;;;;;;17.02;5.90;;;;;;;-20.26;54.77;101086.69;6277367;22;20078;-59
2024/01/08 05:46:42;;;;;;;16.10;5.40;;;;;;;-20.28;54.67;101095.00;6277451;22;20011;-59
2024/01/08 05:49:08;;;;;;;14.02;5.07;;;;;;;-20.34;54.99;101098.06;6277020;22;20052;-56
2024/01/08 05:51:33;;;;;;;16.17;5.75;;;;;;;-20.39;55.16;101097.75;6275792;22;20011;-57
2024/01/08 05:53:59;;;;;;;18.77;5.38;;;;;;;-20.39;55.08;101092.66;6277132;22;20091;-58
2024/01/08 05:56:24;;;;;;;14.30;4.45;;;;;;;-20.40;55.13;101096.00;6277324;22;20003;-56
2024/01/08 05:58:50;;;;;;;16.23;5.78;;;;;;;-20.45;55.03;101088.81;6277137;22;20003;-58
2024/01/08 06:01:17;;;;;;;17.05;5.93;;;;;;;-20.46;54.97;101080.31;6277073;22;20010;-60
2024/01/08 06:03:44;;;;;;;15.45;5.15;;;;;;;-20.46;55.48;101087.97;6277776;22;20031;-56
2024/01/08 06:06:13;;;;;;;15.20;5.53;;;;;;;-20.44;55.48;101082.94;6276815;22;20075;-59
2024/01/08 06:08:40;;;;;;;15.15;4.30;;;;;;;-20.75;55.26;101024.94;6276645;22;20007;-57
2024/01/08 06:11:09;;;;;;;16.05;5.80;;;;;;;-20.34;55.16;101081.88;6277106;22;19996;-59
2024/01/08 06:13:36;;;;;;;15.85;4.90;;;;;;;-20.36;55.02;101069.06;6276641;22;20906;-56
2024/01/08 06:16:02;;;;;;;17.83;5.53;;;;;;;-20.27;55.08;101078.94;6276963;22;20004;-54
2024/01/08 06:18:29;;;;;;;12.98;4.88;;;;;;;-20.28;54.83;101078.06;6277466;22;20038;-54
2024/01/08 06:20:55;;;;;;;17.30;5.82;;;;;;;-20.23;54.96;101083.47;6277007;22;20294;-55
2024/01/08 06:23:21;;;;;;;14.70;5.05;;;;;;;-20.17;54.80;101077.84;6276985;22;19999;-55
2024/01/08 06:25:47;;;;;;;10.50;3.95;;;;;;;-20.08;54.71;101073.34;6277712;22;20004;-59
2024/01/08 06:28:12;;;;;;;17.10;5.43;;;;;;;-20.05;54.62;101075.19;6276996;22;20035;-58
2024/01/08 06:30:38;;;;;;;12.63;5.43;;;;;;;-20.09;54.71;101064.81;6276836;22;20081;-58
2024/01/08 06:33:05;;;;;;;17.60;5.55;;;;;;;-20.01;54.37;101075.50;6276865;22;20000;-59
2024/01/08 06:35:31;;;;;;;13.02;4.95;;;;;;;-19.98;54.80;101062.06;6277424;22;20034;-58
2024/01/08 06:37:56;;;;;;;16.02;6.38;;;;;;;-19.90;54.66;101078.69;6276413;22;20359;-56
2024/01/08 06:40:22;;;;;;;15.55;5.55;;;;;;;-19.81;54.45;101071.59;6276772;22;20018;-55
2024/01/08 06:42:47;;;;;;;17.42;5.60;;;;;;;-19.68;54.46;101083.44;6277266;22;20498;-56
2024/01/08 06:45:13;;;;;;;20.02;5.60;;;;;;;-19.58;54.30;101066.16;6277466;22;20007;-60
2024/01/08 06:47:39;;;;;;;16.75;5.03;;;;;;;-19.38;53.85;101063.16;6276572;22;20366;-57
2024/01/08 06:50:05;;;;;;;18.40;5.38;;;;;;;-19.32;53.91;101047.31;6276473;22;20015;-54
2024/01/08 06:52:31;;;;;;;11.95;3.90;;;;;;;-18.78;53.78;101057.25;6277090;22;20007;-53
2024/01/08 06:54:56;;;;;;;18.08;5.10;;;;;;;-17.14;53.17;101065.22;6277155;22;20397;-53
2024/01/08 06:57:22;;;;;;;12.40;4.93;;;;;;;-14.03;48.57;101040.53;6276783;22;20008;-53
2024/01/08 06:59:48;;;;;;;21.15;6.25;;;;;;;-10.89;43.18;101043.81;6276558;22;20004;-56
2024/01/08 07:02:14;;;;;;;18.73;6.97;;;;;;;-8.47;38.77;101029.09;6276487;22;20340;-56
2024/01/08 07:04:41;;;;;;;15.80;6.40;;;;;;;-6.63;36.46;101038.47;6277154;22;20003;-53
2024/01/08 07:07:06;;;;;;;25.58;8.23;;;;;;;-5.64;34.23;101020.94;6276522;22;20397;-54
2024/01/08 07:09:32;;;;;;;25.25;8.13;;;;;;;-5.64;33.90;101039.19;6276643;22;20007;-50
2024/01/08 07:11:58;;;;;;;20.20;8.48;;;;;;;-6.30;33.66;101030.94;6276697;22;20004;-51
2024/01/08 07:14:23;;;;;;;19.27;8.45;;;;;;;-6.67;34.15;100984.59;6276900;22;20042;-59
2024/01/08 07:16:49;;;;;;;21.80;8.35;;;;;;;-5.42;32.98;101041.91;6276627;22;20000;-58
2024/01/08 07:19:14;;;;;;;22.00;8.93;;;;;;;-4.21;31.23;101036.13;6276342;22;20392;-58
2024/01/08 07:21:40;;;;;;;22.20;8.43;;;;;;;-3.23;29.48;101033.28;6276389;22;19999;-60
2024/01/08 07:24:05;;;;;;;20.52;8.38;;;;;;;-2.42;28.12;101027.59;6276556;22;20038;-60
2024/01/08 07:26:31;;;;;;;22.67;9.25;;;;;;;-1.93;27.40;101023.69;6276273;22;20007;-61
2024/01/08 07:28:56;;;;;;;23.08;9.85;;;;;;;-1.66;26.76;101029.53;6276314;22;20035;-60
2024/01/08 07:31:22;;;;;;;21.10;10.00;;;;;;;-1.54;26.09;101021.53;6275322;22;20014;-57
2024/01/08 07:33:47;;;;;;;21.48;9.50;;;;;;;-2.20;25.33;100975.81;6276862;22;20396;-57
2024/01/08 07:36:13;;;;;;;20.45;9.40;;;;;;;-3.11;26.29;101028.00;6276160;22;20004;-57
2024/01/08 07:38:39;;;;;;;21.85;8.52;;;;;;;-4.63;27.10;101017.78;6276074;22;20401;-60
2024/01/08 07:41:07;;;;;;;19.95;8.93;;;;;;;-6.39;29.40;101021.31;6276089;22;20268;-57
2024/01/08 07:43:32;;;;;;;21.23;8.57;;;;;;;-7.82;31.46;101035.31;6276309;22;20087;-57
2024/01/08 07:45:58;;;;;;;21.83;9.18;;;;;;;-9.07;32.91;101044.50;6276260;22;20034;-59
2024/01/08 07:48:24;;;;;;;27.63;8.98;;;;;;;-10.76;34.73;100988.09;6275943;22;19999;-58
2024/01/08 07:50:49;;;;;;;20.50;8.77;;;;;;;-11.60;36.61;101026.31;6276342;22;20016;-61
2024/01/08 07:53:16;;;;;;;20.90;7.82;;;;;;;-12.50;37.70;101019.31;6276008;22;20000;-51
2024/01/08 07:55:42;;;;;;;18.23;7.45;;;;;;;-13.12;39.02;101033.56;6275845;22;20393;-52
2024/01/08 07:58:09;;;;;;;17.88;7.03;;;;;;;-13.64;40.22;101026.56;6276146;22;20397;-52
2024/01/08 08:00:35;;;;;;;22.90;7.05;;;;;;;-14.10;40.92;101026.56;6274379;22;20423;-52
2024/01/08 08:03:00;;;;;;;16.85;7.20;;;;;;;-14.47;41.69;101012.22;6276113;22;20003;-52
2024/01/08 08:05:26;;;;;;;17.92;7.20;;;;;;;-14.66;42.01;101026.91;6276603;22;20000;-55
2024/01/08 08:07:52;;;;;;;17.77;7.43;;;;;;;-14.77;42.64;101020.47;6276066;22;19999;-58
2024/01/08 08:10:18;;;;;;;18.08;6.55;;;;;;;-14.86;42.96;101026.97;6275053;22;20015;-52
2024/01/08 08:12:43;;;;;;;18.05;7.03;;;;;;;-14.93;43.26;101029.22;6276120;22;20008;-59
2024/01/08 08:15:10;;;;;;;20.80;7.22;;;;;;;-15.02;43.40;101016.84;6275998;22;20071;-57
2024/01/08 08:17:40;;;;;;;14.82;6.45;;;;;;;-15.13;43.31;101000.97;6275887;22;20050;-59
2024/01/08 08:20:06;;;;;;;20.08;7.00;;;;;;;-15.14;43.75;101014.63;6276361;22;20015;-58
2024/01/08 08:22:32;;;;;;;15.60;5.93;;;;;;;-15.17;43.92;101012.84;6276550;22;20007;-56
2024/01/08 08:24:57;;;;;;;19.75;6.43;;;;;;;-15.17;44.04;101017.97;6275942;22;20038;-60
2024/01/08 08:27:23;;;;;;;19.00;6.60;;;;;;;-15.59;44.07;100946.81;6275939;22;20004;-62
2024/01/08 08:29:48;;;;;;;16.30;5.78;;;;;;;-15.21;44.09;101013.50;6276710;22;20291;-60
2024/01/08 08:32:15;;;;;;;19.35;6.40;;;;;;;-15.17;44.31;101007.69;6276215;22;20397;-60
2024/01/08 08:34:40;;;;;;;24.27;7.10;;;;;;;-15.06;44.16;101004.69;6277308;22;20105;-60
2024/01/08 08:37:09;;;;;;;19.15;5.95;;;;;;;-15.40;43.71;100936.47;6277498;22;20409;-59
2024/01/08 08:39:38;;;;;;;23.35;7.20;;;;;;;-15.01;44.34;100990.34;6276496;22;20008;-60
2024/01/08 08:42:05;;;;;;;26.40;6.47;;;;;;;-14.99;44.35;100990.41;6277770;22;20073;-54
2024/01/08 08:44:31;;;;;;;23.67;7.13;;;;;;;-15.00;44.21;100986.97;6277643;22;20007;-59
2024/01/08 08:46:57;;;;;;;23.73;7.18;;;;;;;-15.07;44.92;100979.81;6278766;22;20006;-56
2024/01/08 08:49:23;;;;;;;23.38;8.82;;;;;;;-15.15;44.95;100946.97;6278578;22;20022;-57
2024/01/08 08:51:49;;;;;;;19.98;7.45;;;;;;;-14.99;45.50;100970.72;6278177;22;20023;-57
2024/01/08 08:54:15;;;;;;;20.60;7.18;;;;;;;-14.86;45.34;100974.69;6277578;22;19995;-58
2024/01/08 08:56:40;;;;;;;18.98;7.03;;;;;;;-14.78;45.21;100954.44;6278074;22;20336;-53
2024/01/08 08:59:06;;;;;;;26.20;8.02;;;;;;;-14.73;45.25;100958.06;6278261;22;20003;-55
2024/01/08 09:01:31;;;;;;;35.33;13.25;;;;;;;-14.65;45.64;100960.91;6277451;22;20006;-58
2024/01/08 09:03:57;;;;;;;19.98;7.00;;;;;;;-14.62;45.52;100954.22;6277775;22;20091;-60
2024/01/08 09:06:33;;;;;;;21.42;7.22;;;;;;;-14.59;45.72;100956.00;6278006;22;20300;-59
2024/01/08 09:08:59;;;;;;;16.95;6.28;;;;;;;-14.55;45.42;100963.06;6278137;22;19996;-58
2024/01/08 09:11:24;;;;;;;22.00;7.00;;;;;;;-14.62;45.75;100948.19;6277917;22;20012;-61
2024/01/08 09:13:50;;;;;;;17.85;5.90;;;;;;;-14.68;45.91;100947.94;6277897;22;20027;-54
2024/01/08 09:16:16;;;;;;;20.33;6.40;;;;;;;-14.73;46.27;100950.34;6277614;22;20012;-60
2024/01/08 09:18:42;;;;;;;29.40;8.35;;;;;;;-14.81;46.44;100938.88;6278217;22;20061;-60
2024/01/08 09:21:11;;;;;;;19.63;6.95;;;;;;;-14.82;46.38;100939.72;6277938;22;20350;-57
2024/01/08 09:23:38;;;;;;;22.75;7.45;;;;;;;-14.85;46.72;100935.31;6277651;22;20074;-55
2024/01/08 09:26:04;;;;;;;14.27;6.60;;;;;;;-14.81;46.91;100936.31;6277706;22;19999;-58
2024/01/08 09:28:30;;;;;;;17.15;5.55;;;;;;;-14.81;47.10;100928.59;6278165;22;20019;-57
2024/01/08 09:30:56;;;;;;;19.35;6.57;;;;;;;-14.81;46.84;100916.66;6277317;22;20003;-62
2024/01/08 09:33:21;;;;;;;19.02;6.30;;;;;;;-14.81;47.10;100931.19;6277294;22;20010;-59
2024/01/08 09:35:47;;;;;;;17.38;6.90;;;;;;;-14.81;47.07;100918.31;6277196;22;20004;-54
2024/01/08 09:38:13;;;;;;;21.13;6.88;;;;;;;-14.86;46.82;100911.31;6275401;22;20466;-58
2024/01/08 09:40:41;;;;;;;21.20;6.68;;;;;;;-14.88;47.38;100909.47;6276034;22;20019;-57
2024/01/08 09:43:08;;;;;;;17.77;6.70;;;;;;;-15.04;47.22;100883.19;6276951;22;20012;-59
2024/01/08 09:45:34;;;;;;;20.30;6.63;;;;;;;-14.98;47.83;100908.22;6276862;22;20395;-60
2024/01/08 09:47:59;;;;;;;17.60;6.78;;;;;;;-14.97;47.82;100906.56;6277084;22;20046;-57
2024/01/08 09:50:28;;;;;;;15.68;6.63;;;;;;;-15.03;48.15;100896.91;6276998;22;20000;-59
2024/01/08 09:52:55;;;;;;;19.00;6.43;;;;;;;-14.95;47.87;100895.50;6277984;22;20016;-60
2024/01/08 09:55:21;;;;;;;16.85;6.13;;;;;;;-15.25;47.71;100834.38;6277493;22;20000;-58
2024/01/08 09:57:47;;;;;;;17.42;6.07;;;;;;;-14.90;48.48;100890.56;6277258;22;20848;-59
2024/01/08 10:00:14;;;;;;;21.25;7.05;;;;;;;-15.24;48.35;100835.25;6277460;22;19999;-54
2024/01/08 10:02:40;;;;;;;22.25;6.68;;;;;;;-14.91;48.37;100882.00;6277119;22;20015;-59
2024/01/08 10:05:06;;;;;;;19.73;6.18;;;;;;;-14.90;48.44;100886.31;6277153;22;20000;-60
2024/01/08 10:07:36;;;;;;;16.70;6.25;;;;;;;-14.91;48.65;100881.09;6277321;22;20054;-57
2024/01/08 10:10:05;;;;;;;23.38;6.70;;;;;;;-14.89;48.26;100880.34;6277247;22;20008;-58
2024/01/08 10:12:34;;;;;;;19.65;6.75;;;;;;;-14.90;48.36;100868.31;6276650;22;20015;-59
2024/01/08 10:15:02;;;;;;;16.70;6.20;;;;;;;-14.91;48.44;100863.09;6277280;22;20018;-59
2024/01/08 10:17:31;;;;;;;16.35;6.20;;;;;;;-14.93;48.72;100863.06;6277551;22;20029;-61
2024/01/08 10:20:08;;;;;;;19.67;7.03;;;;;;;-14.89;48.61;100861.47;6276784;22;20404;-58
2024/01/08 10:22:33;;;;;;;15.02;6.13;;;;;;;-14.84;48.70;100853.94;6277006;22;20025;-58
2024/01/08 10:25:02;;;;;;;16.13;6.18;;;;;;;-14.80;48.89;100863.53;6277678;22;20416;-63
2024/01/08 10:27:31;;;;;;;20.60;7.28;;;;;;;-14.76;49.00;100858.56;6277306;22;20046;-57
2024/01/08 10:29:57;;;;;;;17.98;6.53;;;;;;;-14.70;48.87;100863.06;6276421;22;20338;-53
2024/01/08 10:32:23;;;;;;;20.13;6.68;;;;;;;-14.65;49.01;100852.94;6277168;22;20004;-55
2024/01/08 10:34:49;;;;;;;17.77;5.90;;;;;;;-14.60;48.77;100848.81;6277372;22;20238;-54
2024/01/08 10:37:15;;;;;;;20.73;6.80;;;;;;;-14.52;48.75;100849.13;6276861;22;20000;-56
2024/01/08 10:39:42;;;;;;;14.20;6.15;;;;;;;-14.47;48.49;100839.88;6276194;22;20016;-55
2024/01/08 10:42:09;;;;;;;18.13;6.32;;;;;;;-14.39;48.99;100842.75;6276723;22;20436;-58
2024/01/08 10:44:34;;;;;;;18.92;6.47;;;;;;;-14.36;48.96;100832.56;6277208;22;19999;-55
2024/01/08 10:47:14;;;;;;;16.17;6.43;;;;;;;-14.28;48.73;100836.31;6277176;22;20000;-62
2024/01/08 10:49:41;;;;;;;16.08;5.95;;;;;;;-14.23;48.99;100824.50;6275949;22;20258;-57
2024/01/08 10:52:27;;;;;;;20.00;6.75;;;;;;;-14.11;48.77;100824.06;6277036;22;20040;-58
2024/01/08 10:54:57;;;;;;;15.43;6.22;;;;;;;-14.38;48.74;100755.34;6277009;22;20381;-59
2024/01/08 10:57:34;;;;;;;15.38;5.32;;;;;;;-14.05;48.37;100806.25;6276761;22;20000;-57
2024/01/08 11:00:01;;;;;;;16.55;6.57;;;;;;;-14.00;48.79;100809.84;6276594;22;19999;-61
2024/01/08 11:02:27;;;;;;;20.67;6.55;;;;;;;-13.99;48.39;100796.16;6276091;22;20026;-54